| Date | Time | Temp. (oF) | Dew Point (oF) | Rel. Hum. (%) | Press. (in.) | Wind Dir. | Wind Speed (mph) | Hourly Rainfall (in.) |
|
|---|---|---|---|---|---|---|---|---|---|
| 1 | 05/21 | 00:00 | 57 | 55 | 94 | 30.08 | E | 4 | 0.00 |
| 2 | 05/20 | 23:00 | 58 | 56 | 95 | 30.08 | S | 3 | 0.01 |
| 3 | 05/20 | 22:00 | 58 | 56 | 94 | 30.08 | SSE | 2 | 0.02 |
| 4 | 05/20 | 21:00 | 60 | 55 | 85 | 30.07 | SE | 4 | 0.00 |
| 5 | 05/20 | 20:00 | 61 | 56 | 84 | 30.05 | S | 3 | 0.00 |
| 6 | 05/20 | 19:00 | 64 | 55 | 75 | 30.02 | ESE | 5 | 0.00 |
| 7 | 05/20 | 18:00 | 65 | 56 | 73 | 30.02 | ESE | 5 | 0.00 |
| 8 | 05/20 | 17:00 | 66 | 57 | 73 | 30.02 | ESE | 8 | 0.00 |
| 9 | 05/20 | 16:00 | 64 | 56 | 78 | 30.03 | SE | 5 | 0.00 |
| 10 | 05/20 | 15:00 | 65 | 58 | 79 | 30.03 | ESE | 7 | 0.00 |
| 11 | 05/20 | 14:00 | 62 | 57 | 86 | 30.04 | E | 4 | 0.00 |
| 12 | 05/20 | 13:00 | 61 | 57 | 87 | 30.04 | ESE | 4 | 0.00 |
| 13 | 05/20 | 12:00 | 61 | 57 | 88 | 30.03 | SE | 11 | 0.00 |
| 14 | 05/20 | 11:00 | 61 | 58 | 91 | 30.03 | ESE | 7 | 0.00 |
| 15 | 05/20 | 10:00 | 61 | 58 | 90 | 30.01 | ESE | 5 | 0.00 |
| 16 | 05/20 | 09:00 | 62 | 59 | 92 | 30.00 | ENE | 5 | 0.00 |
| 17 | 05/20 | 08:00 | 60 | 58 | 94 | 29.98 | E | 4 | 0.00 |
| 18 | 05/20 | 07:00 | 56 | 54 | 93 | 29.97 | NNE | 4 | 0.00 |
| 19 | 05/20 | 06:00 | 53 | 51 | 93 | 29.94 | W | 0 | 0.00 |
| 20 | 05/20 | 05:00 | 54 | 51 | 91 | 29.90 | W | 0 | 0.00 |
| 21 | 05/20 | 04:00 | 56 | 52 | 89 | 29.90 | SSW | 0 | 0.00 |
| 22 | 05/20 | 03:00 | 57 | 53 | 88 | 29.89 | NNW | 0 | 0.00 |
| 23 | 05/20 | 02:00 | 58 | 53 | 86 | 29.90 | NNW | 0 | 0.00 |
| 24 | 05/20 | 01:00 | 60 | 54 | 83 | 29.89 | WSW | 0 | 0.00 |